sensor_id;sensor_type;location;lat;lon;timestamp;P1;durP1;ratioP1;P2;durP2;ratioP2
10410;SDS011;5251;52.112;8.606;2023-08-06T00:01:51;2.40;;;2.20;;
10410;SDS011;5251;52.112;8.606;2023-08-06T00:04:17;4.95;;;2.30;;
10410;SDS011;5251;52.112;8.606;2023-08-06T00:06:42;3.45;;;2.22;;
10410;SDS011;5251;52.112;8.606;2023-08-06T00:09:08;5.07;;;2.13;;
10410;SDS011;5251;52.112;8.606;2023-08-06T00:11:33;2.97;;;2.13;;
10410;SDS011;5251;52.112;8.606;2023-08-06T00:13:59;2.22;;;2.03;;
10410;SDS011;5251;52.112;8.606;2023-08-06T00:16:25;2.22;;;2.03;;
10410;SDS011;5251;52.112;8.606;2023-08-06T00:18:50;2.92;;;2.30;;
10410;SDS011;5251;52.112;8.606;2023-08-06T00:21:16;3.05;;;1.95;;
10410;SDS011;5251;52.112;8.606;2023-08-06T00:23:41;2.65;;;2.08;;
10410;SDS011;5251;52.112;8.606;2023-08-06T00:26:07;3.33;;;2.10;;
10410;SDS011;5251;52.112;8.606;2023-08-06T00:28:32;2.47;;;2.28;;
10410;SDS011;5251;52.112;8.606;2023-08-06T00:30:58;2.03;;;1.83;;
10410;SDS011;5251;52.112;8.606;2023-08-06T00:33:24;3.05;;;1.90;;
10410;SDS011;5251;52.112;8.606;2023-08-06T00:35:50;2.28;;;2.05;;
10410;SDS011;5251;52.112;8.606;2023-08-06T00:38:16;2.20;;;2.00;;
10410;SDS011;5251;52.112;8.606;2023-08-06T00:40:42;3.88;;;2.10;;
10410;SDS011;5251;52.112;8.606;2023-08-06T00:43:08;2.47;;;2.28;;
10410;SDS011;5251;52.112;8.606;2023-08-06T00:45:35;2.10;;;1.98;;
10410;SDS011;5251;52.112;8.606;2023-08-06T00:48:03;2.42;;;1.95;;
10410;SDS011;5251;52.112;8.606;2023-08-06T00:50:31;2.50;;;2.20;;
10410;SDS011;5251;52.112;8.606;2023-08-06T00:52:56;2.22;;;2.00;;
10410;SDS011;5251;52.112;8.606;2023-08-06T00:55:23;1.85;;;1.75;;
10410;SDS011;5251;52.112;8.606;2023-08-06T00:57:48;3.15;;;2.10;;
10410;SDS011;5251;52.112;8.606;2023-08-06T01:00:16;2.53;;;2.25;;
10410;SDS011;5251;52.112;8.606;2023-08-06T01:02:41;2.90;;;2.20;;
10410;SDS011;5251;52.112;8.606;2023-08-06T01:05:07;4.22;;;2.33;;
10410;SDS011;5251;52.112;8.606;2023-08-06T01:16:09;2.88;;;2.10;;
10410;SDS011;5251;52.112;8.606;2023-08-06T01:18:35;2.40;;;2.20;;
10410;SDS011;5251;52.112;8.606;2023-08-06T01:21:02;2.30;;;2.10;;
10410;SDS011;5251;52.112;8.606;2023-08-06T01:23:28;2.70;;;2.13;;
10410;SDS011;5251;52.112;8.606;2023-08-06T01:26:02;2.20;;;2.00;;
10410;SDS011;5251;52.112;8.606;2023-08-06T01:28:37;2.20;;;2.00;;
10410;SDS011;5251;52.112;8.606;2023-08-06T01:31:13;2.28;;;2.08;;
10410;SDS011;5251;52.112;8.606;2023-08-06T01:33:44;2.47;;;2.28;;
10410;SDS011;5251;52.112;8.606;2023-08-06T01:36:12;4.43;;;2.25;;
10410;SDS011;5251;52.112;8.606;2023-08-06T01:38:40;4.22;;;2.60;;
10410;SDS011;5251;52.112;8.606;2023-08-06T01:41:06;2.22;;;2.00;;
10410;SDS011;5251;52.112;8.606;2023-08-06T01:43:31;2.45;;;2.17;;
10410;SDS011;5251;52.112;8.606;2023-08-06T01:45:57;4.05;;;2.22;;
10410;SDS011;5251;52.112;8.606;2023-08-06T01:48:23;3.70;;;2.15;;
10410;SDS011;5251;52.112;8.606;2023-08-06T01:50:48;4.25;;;2.10;;
10410;SDS011;5251;52.112;8.606;2023-08-06T01:53:14;2.75;;;2.20;;
10410;SDS011;5251;52.112;8.606;2023-08-06T01:55:39;4.32;;;2.28;;
10410;SDS011;5251;52.112;8.606;2023-08-06T01:58:05;2.15;;;1.90;;
10410;SDS011;5251;52.112;8.606;2023-08-06T02:00:30;2.45;;;2.28;;
10410;SDS011;5251;52.112;8.606;2023-08-06T02:02:56;2.40;;;2.20;;
10410;SDS011;5251;52.112;8.606;2023-08-06T02:05:21;4.32;;;2.30;;
10410;SDS011;5251;52.112;8.606;2023-08-06T02:07:47;2.22;;;2.03;;
10410;SDS011;5251;52.112;8.606;2023-08-06T02:10:13;2.30;;;2.10;;
10410;SDS011;5251;52.112;8.606;2023-08-06T02:12:38;2.20;;;2.08;;
10410;SDS011;5251;52.112;8.606;2023-08-06T02:15:04;2.40;;;2.20;;
10410;SDS011;5251;52.112;8.606;2023-08-06T02:17:30;3.85;;;2.10;;
10410;SDS011;5251;52.112;8.606;2023-08-06T02:19:56;3.50;;;2.15;;
10410;SDS011;5251;52.112;8.606;2023-08-06T02:22:22;2.20;;;2.00;;
10410;SDS011;5251;52.112;8.606;2023-08-06T02:24:49;2.15;;;1.95;;
10410;SDS011;5251;52.112;8.606;2023-08-06T02:27:14;2.65;;;2.20;;
10410;SDS011;5251;52.112;8.606;2023-08-06T02:29:40;2.17;;;1.98;;
10410;SDS011;5251;52.112;8.606;2023-08-06T02:32:06;2.17;;;1.98;;
10410;SDS011;5251;52.112;8.606;2023-08-06T02:34:32;2.22;;;1.95;;
10410;SDS011;5251;52.112;8.606;2023-08-06T02:36:58;2.53;;;2.20;;
10410;SDS011;5251;52.112;8.606;2023-08-06T02:39:23;2.13;;;1.92;;
10410;SDS011;5251;52.112;8.606;2023-08-06T02:41:49;2.30;;;2.10;;
10410;SDS011;5251;52.112;8.606;2023-08-06T02:44:15;2.40;;;2.20;;
10410;SDS011;5251;52.112;8.606;2023-08-06T02:46:40;2.70;;;2.33;;
10410;SDS011;5251;52.112;8.606;2023-08-06T02:49:06;2.55;;;2.30;;
10410;SDS011;5251;52.112;8.606;2023-08-06T02:51:32;2.25;;;2.00;;
10410;SDS011;5251;52.112;8.606;2023-08-06T02:53:57;3.78;;;2.30;;
10410;SDS011;5251;52.112;8.606;2023-08-06T02:56:23;2.40;;;2.20;;
10410;SDS011;5251;52.112;8.606;2023-08-06T02:58:48;2.30;;;2.03;;
10410;SDS011;5251;52.112;8.606;2023-08-06T03:01:14;2.20;;;2.00;;
10410;SDS011;5251;52.112;8.606;2023-08-06T03:03:40;3.10;;;2.20;;
10410;SDS011;5251;52.112;8.606;2023-08-06T03:06:05;7.00;;;2.30;;
10410;SDS011;5251;52.112;8.606;2023-08-06T03:08:31;2.67;;;2.33;;
10410;SDS011;5251;52.112;8.606;2023-08-06T03:10:56;2.80;;;2.50;;
10410;SDS011;5251;52.112;8.606;2023-08-06T03:13:22;2.45;;;2.25;;
10410;SDS011;5251;52.112;8.606;2023-08-06T03:15:51;2.50;;;2.30;;
10410;SDS011;5251;52.112;8.606;2023-08-06T03:18:19;3.65;;;2.40;;
10410;SDS011;5251;52.112;8.606;2023-08-06T03:20:45;2.53;;;2.33;;
10410;SDS011;5251;52.112;8.606;2023-08-06T03:23:10;4.55;;;2.40;;
10410;SDS011;5251;52.112;8.606;2023-08-06T03:25:36;2.80;;;2.28;;
10410;SDS011;5251;52.112;8.606;2023-08-06T03:28:02;3.65;;;2.30;;
10410;SDS011;5251;52.112;8.606;2023-08-06T03:30:27;2.53;;;2.15;;
10410;SDS011;5251;52.112;8.606;2023-08-06T03:32:53;2.50;;;2.30;;
10410;SDS011;5251;52.112;8.606;2023-08-06T03:35:18;2.50;;;2.30;;
10410;SDS011;5251;52.112;8.606;2023-08-06T03:37:44;2.40;;;2.20;;
10410;SDS011;5251;52.112;8.606;2023-08-06T03:40:10;3.13;;;2.40;;
10410;SDS011;5251;52.112;8.606;2023-08-06T03:42:35;2.92;;;2.45;;
10410;SDS011;5251;52.112;8.606;2023-08-06T03:45:01;2.65;;;2.45;;
10410;SDS011;5251;52.112;8.606;2023-08-06T03:47:27;3.30;;;2.53;;
10410;SDS011;5251;52.112;8.606;2023-08-06T03:49:52;2.97;;;2.65;;
10410;SDS011;5251;52.112;8.606;2023-08-06T03:52:18;3.33;;;2.90;;
10410;SDS011;5251;52.112;8.606;2023-08-06T03:54:43;2.90;;;2.70;;
10410;SDS011;5251;52.112;8.606;2023-08-06T03:57:09;3.25;;;2.55;;
10410;SDS011;5251;52.112;8.606;2023-08-06T03:59:35;3.63;;;2.78;;
10410;SDS011;5251;52.112;8.606;2023-08-06T04:02:01;3.35;;;2.70;;
10410;SDS011;5251;52.112;8.606;2023-08-06T04:04:27;4.60;;;2.85;;
10410;SDS011;5251;52.112;8.606;2023-08-06T04:06:53;4.70;;;2.90;;
10410;SDS011;5251;52.112;8.606;2023-08-06T04:09:18;3.22;;;2.67;;
10410;SDS011;5251;52.112;8.606;2023-08-06T04:11:44;3.58;;;2.22;;
10410;SDS011;5251;52.112;8.606;2023-08-06T04:14:09;2.85;;;2.65;;
10410;SDS011;5251;52.112;8.606;2023-08-06T04:16:35;2.95;;;2.30;;
10410;SDS011;5251;52.112;8.606;2023-08-06T04:19:01;3.28;;;2.38;;
10410;SDS011;5251;52.112;8.606;2023-08-06T04:21:26;5.68;;;2.63;;
10410;SDS011;5251;52.112;8.606;2023-08-06T04:23:52;2.55;;;2.35;;
10410;SDS011;5251;52.112;8.606;2023-08-06T04:26:17;2.90;;;2.70;;
10410;SDS011;5251;52.112;8.606;2023-08-06T04:28:43;3.85;;;2.63;;
10410;SDS011;5251;52.112;8.606;2023-08-06T04:31:09;4.10;;;2.50;;
10410;SDS011;5251;52.112;8.606;2023-08-06T04:33:34;3.65;;;2.70;;
10410;SDS011;5251;52.112;8.606;2023-08-06T04:36:00;3.05;;;2.75;;
10410;SDS011;5251;52.112;8.606;2023-08-06T04:38:25;3.33;;;2.50;;
10410;SDS011;5251;52.112;8.606;2023-08-06T04:40:52;6.97;;;3.15;;
10410;SDS011;5251;52.112;8.606;2023-08-06T04:43:18;3.75;;;3.00;;
10410;SDS011;5251;52.112;8.606;2023-08-06T04:45:47;4.13;;;3.17;;
10410;SDS011;5251;52.112;8.606;2023-08-06T04:48:18;3.47;;;2.78;;
10410;SDS011;5251;52.112;8.606;2023-08-06T04:50:44;3.60;;;2.88;;
10410;SDS011;5251;52.112;8.606;2023-08-06T04:53:10;2.97;;;2.78;;
10410;SDS011;5251;52.112;8.606;2023-08-06T04:55:36;3.83;;;2.80;;
10410;SDS011;5251;52.112;8.606;2023-08-06T04:58:01;2.80;;;2.60;;
10410;SDS011;5251;52.112;8.606;2023-08-06T05:00:27;2.92;;;2.72;;
10410;SDS011;5251;52.112;8.606;2023-08-06T05:02:52;3.70;;;2.95;;
10410;SDS011;5251;52.112;8.606;2023-08-06T05:05:18;3.58;;;2.45;;
10410;SDS011;5251;52.112;8.606;2023-08-06T05:07:45;2.75;;;2.55;;
10410;SDS011;5251;52.112;8.606;2023-08-06T05:10:13;3.20;;;2.83;;
10410;SDS011;5251;52.112;8.606;2023-08-06T05:12:39;3.28;;;2.97;;
10410;SDS011;5251;52.112;8.606;2023-08-06T05:15:04;3.45;;;3.00;;
10410;SDS011;5251;52.112;8.606;2023-08-06T05:17:30;4.53;;;3.05;;
10410;SDS011;5251;52.112;8.606;2023-08-06T05:19:56;3.60;;;2.90;;
10410;SDS011;5251;52.112;8.606;2023-08-06T05:22:21;2.90;;;2.70;;
10410;SDS011;5251;52.112;8.606;2023-08-06T05:24:47;3.15;;;2.42;;
10410;SDS011;5251;52.112;8.606;2023-08-06T05:27:13;2.97;;;2.67;;
10410;SDS011;5251;52.112;8.606;2023-08-06T05:29:38;3.35;;;2.67;;
10410;SDS011;5251;52.112;8.606;2023-08-06T05:32:04;3.00;;;2.80;;
10410;SDS011;5251;52.112;8.606;2023-08-06T05:34:30;3.30;;;2.90;;
10410;SDS011;5251;52.112;8.606;2023-08-06T05:36:55;3.90;;;3.00;;
10410;SDS011;5251;52.112;8.606;2023-08-06T05:39:21;3.40;;;3.10;;
10410;SDS011;5251;52.112;8.606;2023-08-06T05:41:47;4.13;;;2.58;;
10410;SDS011;5251;52.112;8.606;2023-08-06T05:44:12;4.28;;;2.67;;
10410;SDS011;5251;52.112;8.606;2023-08-06T05:46:38;3.85;;;2.40;;
10410;SDS011;5251;52.112;8.606;2023-08-06T05:49:03;2.50;;;2.30;;
10410;SDS011;5251;52.112;8.606;2023-08-06T05:51:30;2.78;;;2.58;;
10410;SDS011;5251;52.112;8.606;2023-08-06T05:53:55;2.95;;;2.50;;
10410;SDS011;5251;52.112;8.606;2023-08-06T05:56:21;3.50;;;2.63;;
10410;SDS011;5251;52.112;8.606;2023-08-06T05:58:46;2.78;;;2.45;;
10410;SDS011;5251;52.112;8.606;2023-08-06T06:01:12;3.00;;;2.40;;
10410;SDS011;5251;52.112;8.606;2023-08-06T06:03:38;4.03;;;2.55;;
10410;SDS011;5251;52.112;8.606;2023-08-06T06:06:03;2.83;;;2.30;;
10410;SDS011;5251;52.112;8.606;2023-08-06T06:08:29;2.50;;;2.30;;
10410;SDS011;5251;52.112;8.606;2023-08-06T06:10:55;5.75;;;2.72;;
10410;SDS011;5251;52.112;8.606;2023-08-06T06:13:20;2.97;;;2.63;;
10410;SDS011;5251;52.112;8.606;2023-08-06T06:15:46;2.47;;;2.28;;
10410;SDS011;5251;52.112;8.606;2023-08-06T06:18:12;3.17;;;2.35;;
10410;SDS011;5251;52.112;8.606;2023-08-06T06:20:38;2.75;;;2.55;;
10410;SDS011;5251;52.112;8.606;2023-08-06T06:23:04;4.28;;;2.50;;
10410;SDS011;5251;52.112;8.606;2023-08-06T06:25:29;2.55;;;2.35;;
10410;SDS011;5251;52.112;8.606;2023-08-06T06:27:55;2.97;;;2.42;;
10410;SDS011;5251;52.112;8.606;2023-08-06T06:30:20;2.85;;;2.30;;
10410;SDS011;5251;52.112;8.606;2023-08-06T06:32:46;3.20;;;2.20;;
10410;SDS011;5251;52.112;8.606;2023-08-06T06:35:12;2.35;;;2.15;;
10410;SDS011;5251;52.112;8.606;2023-08-06T06:37:38;2.67;;;2.33;;
10410;SDS011;5251;52.112;8.606;2023-08-06T06:40:03;3.47;;;2.42;;
10410;SDS011;5251;52.112;8.606;2023-08-06T06:42:29;2.60;;;2.40;;
10410;SDS011;5251;52.112;8.606;2023-08-06T06:44:55;3.65;;;2.38;;
10410;SDS011;5251;52.112;8.606;2023-08-06T06:47:21;2.60;;;2.22;;
10410;SDS011;5251;52.112;8.606;2023-08-06T06:49:46;2.38;;;2.17;;
10410;SDS011;5251;52.112;8.606;2023-08-06T06:52:12;3.28;;;2.03;;
10410;SDS011;5251;52.112;8.606;2023-08-06T06:54:38;2.58;;;2.30;;
10410;SDS011;5251;52.112;8.606;2023-08-06T06:57:03;3.15;;;2.55;;
10410;SDS011;5251;52.112;8.606;2023-08-06T06:59:29;3.08;;;2.40;;
10410;SDS011;5251;52.112;8.606;2023-08-06T07:01:55;2.35;;;2.15;;
10410;SDS011;5251;52.112;8.606;2023-08-06T07:04:21;4.07;;;2.20;;
10410;SDS011;5251;52.112;8.606;2023-08-06T07:06:47;4.57;;;2.67;;
10410;SDS011;5251;52.112;8.606;2023-08-06T07:09:12;3.00;;;2.45;;
10410;SDS011;5251;52.112;8.606;2023-08-06T07:11:38;2.88;;;2.67;;
10410;SDS011;5251;52.112;8.606;2023-08-06T07:14:03;2.83;;;2.50;;
10410;SDS011;5251;52.112;8.606;2023-08-06T07:16:29;2.53;;;2.33;;
10410;SDS011;5251;52.112;8.606;2023-08-06T07:18:55;4.15;;;2.58;;
10410;SDS011;5251;52.112;8.606;2023-08-06T07:21:20;2.92;;;2.40;;
10410;SDS011;5251;52.112;8.606;2023-08-06T07:23:46;3.47;;;2.45;;
10410;SDS011;5251;52.112;8.606;2023-08-06T07:26:14;2.78;;;2.50;;
10410;SDS011;5251;52.112;8.606;2023-08-06T07:28:41;3.13;;;2.80;;
10410;SDS011;5251;52.112;8.606;2023-08-06T07:31:06;2.85;;;2.53;;
10410;SDS011;5251;52.112;8.606;2023-08-06T07:33:32;2.90;;;2.65;;
10410;SDS011;5251;52.112;8.606;2023-08-06T07:35:57;4.55;;;2.30;;
10410;SDS011;5251;52.112;8.606;2023-08-06T07:38:23;2.40;;;2.20;;
10410;SDS011;5251;52.112;8.606;2023-08-06T07:40:49;2.55;;;2.35;;
10410;SDS011;5251;52.112;8.606;2023-08-06T07:43:14;2.75;;;2.40;;
10410;SDS011;5251;52.112;8.606;2023-08-06T07:45:40;2.60;;;2.40;;
10410;SDS011;5251;52.112;8.606;2023-08-06T07:48:05;2.47;;;2.25;;
10410;SDS011;5251;52.112;8.606;2023-08-06T07:50:31;2.60;;;2.40;;
10410;SDS011;5251;52.112;8.606;2023-08-06T07:52:57;2.40;;;2.20;;
10410;SDS011;5251;52.112;8.606;2023-08-06T07:55:23;3.33;;;2.40;;
10410;SDS011;5251;52.112;8.606;2023-08-06T07:57:48;2.47;;;2.28;;
10410;SDS011;5251;52.112;8.606;2023-08-06T08:00:14;2.65;;;2.40;;
10410;SDS011;5251;52.112;8.606;2023-08-06T08:02:39;2.42;;;2.22;;
10410;SDS011;5251;52.112;8.606;2023-08-06T08:05:05;2.42;;;1.88;;
10410;SDS011;5251;52.112;8.606;2023-08-06T08:07:33;2.28;;;2.10;;
10410;SDS011;5251;52.112;8.606;2023-08-06T08:09:59;2.20;;;2.00;;
10410;SDS011;5251;52.112;8.606;2023-08-06T08:12:24;2.40;;;2.20;;
10410;SDS011;5251;52.112;8.606;2023-08-06T08:14:50;2.08;;;1.98;;
10410;SDS011;5251;52.112;8.606;2023-08-06T08:17:15;2.40;;;1.95;;
10410;SDS011;5251;52.112;8.606;2023-08-06T08:19:41;2.28;;;2.08;;
10410;SDS011;5251;52.112;8.606;2023-08-06T08:22:07;2.22;;;2.03;;
10410;SDS011;5251;52.112;8.606;2023-08-06T08:24:32;2.85;;;2.20;;
10410;SDS011;5251;52.112;8.606;2023-08-06T08:26:58;2.35;;;1.98;;
10410;SDS011;5251;52.112;8.606;2023-08-06T08:29:23;2.28;;;1.95;;
10410;SDS011;5251;52.112;8.606;2023-08-06T08:31:49;2.00;;;1.80;;
10410;SDS011;5251;52.112;8.606;2023-08-06T08:34:18;1.83;;;1.70;;
10410;SDS011;5251;52.112;8.606;2023-08-06T08:36:44;1.90;;;1.80;;
10410;SDS011;5251;52.112;8.606;2023-08-06T08:39:12;1.80;;;1.70;;
10410;SDS011;5251;52.112;8.606;2023-08-06T08:41:38;1.90;;;1.65;;
10410;SDS011;5251;52.112;8.606;2023-08-06T08:44:05;1.80;;;1.70;;
10410;SDS011;5251;52.112;8.606;2023-08-06T08:46:34;2.03;;;1.80;;
10410;SDS011;5251;52.112;8.606;2023-08-06T08:49:03;1.60;;;1.50;;
10410;SDS011;5251;52.112;8.606;2023-08-06T08:51:29;1.92;;;1.67;;
10410;SDS011;5251;52.112;8.606;2023-08-06T08:53:55;4.60;;;1.70;;
10410;SDS011;5251;52.112;8.606;2023-08-06T08:56:24;1.85;;;1.75;;
10410;SDS011;5251;52.112;8.606;2023-08-06T08:58:50;2.03;;;1.80;;
10410;SDS011;5251;52.112;8.606;2023-08-06T09:01:20;3.35;;;1.80;;
10410;SDS011;5251;52.112;8.606;2023-08-06T09:03:47;2.53;;;2.00;;
10410;SDS011;5251;52.112;8.606;2023-08-06T09:06:12;1.60;;;1.50;;
10410;SDS011;5251;52.112;8.606;2023-08-06T09:11:37;2.17;;;1.70;;
10410;SDS011;5251;52.112;8.606;2023-08-06T09:14:08;1.80;;;1.70;;
10410;SDS011;5251;52.112;8.606;2023-08-06T09:16:37;1.70;;;1.60;;
10410;SDS011;5251;52.112;8.606;2023-08-06T09:19:12;1.92;;;1.70;;
10410;SDS011;5251;52.112;8.606;2023-08-06T09:21:40;1.92;;;1.83;;
10410;SDS011;5251;52.112;8.606;2023-08-06T09:24:13;2.20;;;1.63;;
10410;SDS011;5251;52.112;8.606;2023-08-06T09:26:40;1.67;;;1.58;;
10410;SDS011;5251;52.112;8.606;2023-08-06T09:29:07;1.55;;;1.45;;
10410;SDS011;5251;52.112;8.606;2023-08-06T09:31:47;2.78;;;1.60;;
10410;SDS011;5251;52.112;8.606;2023-08-06T09:34:17;1.77;;;1.60;;
10410;SDS011;5251;52.112;8.606;2023-08-06T09:36:50;2.10;;;1.90;;
10410;SDS011;5251;52.112;8.606;2023-08-06T09:39:19;2.17;;;1.77;;
10410;SDS011;5251;52.112;8.606;2023-08-06T09:41:47;1.90;;;1.80;;
10410;SDS011;5251;52.112;8.606;2023-08-06T09:44:17;1.80;;;1.70;;
10410;SDS011;5251;52.112;8.606;2023-08-06T09:46:51;2.13;;;1.85;;
10410;SDS011;5251;52.112;8.606;2023-08-06T09:49:19;2.03;;;1.85;;
10410;SDS011;5251;52.112;8.606;2023-08-06T09:51:47;2.72;;;1.92;;
10410;SDS011;5251;52.112;8.606;2023-08-06T09:54:16;1.80;;;1.70;;
10410;SDS011;5251;52.112;8.606;2023-08-06T09:56:42;1.75;;;1.60;;
10410;SDS011;5251;52.112;8.606;2023-08-06T09:59:08;3.13;;;2.15;;
10410;SDS011;5251;52.112;8.606;2023-08-06T10:01:36;2.70;;;1.77;;
10410;SDS011;5251;52.112;8.606;2023-08-06T10:04:05;2.05;;;1.90;;
10410;SDS011;5251;52.112;8.606;2023-08-06T10:06:36;2.28;;;1.90;;
10410;SDS011;5251;52.112;8.606;2023-08-06T10:09:05;2.30;;;1.90;;
10410;SDS011;5251;52.112;8.606;2023-08-06T10:11:31;1.98;;;1.80;;
10410;SDS011;5251;52.112;8.606;2023-08-06T10:16:34;2.97;;;1.75;;
10410;SDS011;5251;52.112;8.606;2023-08-06T10:19:01;1.88;;;1.77;;
10410;SDS011;5251;52.112;8.606;2023-08-06T10:21:30;2.65;;;1.88;;
10410;SDS011;5251;52.112;8.606;2023-08-06T10:23:56;1.80;;;1.70;;
10410;SDS011;5251;52.112;8.606;2023-08-06T10:26:28;1.80;;;1.70;;
10410;SDS011;5251;52.112;8.606;2023-08-06T10:28:54;1.92;;;1.83;;
10410;SDS011;5251;52.112;8.606;2023-08-06T10:31:20;2.53;;;2.03;;
10410;SDS011;5251;52.112;8.606;2023-08-06T10:34:17;2.10;;;1.90;;
10410;SDS011;5251;52.112;8.606;2023-08-06T10:36:44;1.70;;;1.60;;
10410;SDS011;5251;52.112;8.606;2023-08-06T10:39:12;2.25;;;1.60;;
10410;SDS011;5251;52.112;8.606;2023-08-06T10:41:39;1.58;;;1.45;;
10410;SDS011;5251;52.112;8.606;2023-08-06T10:44:08;2.03;;;1.70;;
10410;SDS011;5251;52.112;8.606;2023-08-06T10:46:34;1.70;;;1.60;;
10410;SDS011;5251;52.112;8.606;2023-08-06T10:49:01;1.88;;;1.75;;
10410;SDS011;5251;52.112;8.606;2023-08-06T10:51:27;2.03;;;1.83;;
10410;SDS011;5251;52.112;8.606;2023-08-06T10:53:53;1.75;;;1.65;;
10410;SDS011;5251;52.112;8.606;2023-08-06T10:56:19;2.17;;;1.73;;
10410;SDS011;5251;52.112;8.606;2023-08-06T10:58:49;1.98;;;1.65;;
10410;SDS011;5251;52.112;8.606;2023-08-06T11:01:16;3.88;;;1.70;;
10410;SDS011;5251;52.112;8.606;2023-08-06T11:03:42;1.70;;;1.60;;
10410;SDS011;5251;52.112;8.606;2023-08-06T11:06:09;2.08;;;1.85;;
10410;SDS011;5251;52.112;8.606;2023-08-06T11:08:36;3.70;;;1.67;;
10410;SDS011;5251;52.112;8.606;2023-08-06T11:13:36;3.90;;;1.60;;
10410;SDS011;5251;52.112;8.606;2023-08-06T11:16:04;1.67;;;1.58;;
10410;SDS011;5251;52.112;8.606;2023-08-06T11:18:31;1.67;;;1.58;;
10410;SDS011;5251;52.112;8.606;2023-08-06T11:21:00;2.80;;;1.60;;
10410;SDS011;5251;52.112;8.606;2023-08-06T11:23:27;1.83;;;1.73;;
10410;SDS011;5251;52.112;8.606;2023-08-06T11:25:56;1.83;;;1.73;;
10410;SDS011;5251;52.112;8.606;2023-08-06T11:28:22;1.95;;;1.70;;
10410;SDS011;5251;52.112;8.606;2023-08-06T11:30:49;1.73;;;1.63;;
10410;SDS011;5251;52.112;8.606;2023-08-06T11:33:22;2.20;;;1.77;;
10410;SDS011;5251;52.112;8.606;2023-08-06T11:35:50;2.45;;;1.52;;
10410;SDS011;5251;52.112;8.606;2023-08-06T11:38:16;1.77;;;1.63;;
10410;SDS011;5251;52.112;8.606;2023-08-06T11:40:44;1.77;;;1.60;;
10410;SDS011;5251;52.112;8.606;2023-08-06T11:43:10;1.73;;;1.63;;
10410;SDS011;5251;52.112;8.606;2023-08-06T11:45:37;1.73;;;1.63;;
10410;SDS011;5251;52.112;8.606;2023-08-06T11:48:03;1.77;;;1.67;;
10410;SDS011;5251;52.112;8.606;2023-08-06T11:50:29;1.73;;;1.63;;
10410;SDS011;5251;52.112;8.606;2023-08-06T11:52:59;2.00;;;1.80;;
10410;SDS011;5251;52.112;8.606;2023-08-06T11:55:26;1.50;;;1.40;;
10410;SDS011;5251;52.112;8.606;2023-08-06T11:57:55;2.03;;;1.70;;
10410;SDS011;5251;52.112;8.606;2023-08-06T12:00:23;2.03;;;1.45;;
10410;SDS011;5251;52.112;8.606;2023-08-06T12:02:50;2.78;;;1.50;;
10410;SDS011;5251;52.112;8.606;2023-08-06T12:05:20;1.75;;;1.65;;
10410;SDS011;5251;52.112;8.606;2023-08-06T12:07:58;2.35;;;1.60;;
10410;SDS011;5251;52.112;8.606;2023-08-06T12:10:26;3.08;;;1.60;;
10410;SDS011;5251;52.112;8.606;2023-08-06T12:12:53;1.55;;;1.45;;
10410;SDS011;5251;52.112;8.606;2023-08-06T12:15:19;3.47;;;1.40;;
10410;SDS011;5251;52.112;8.606;2023-08-06T12:17:44;1.52;;;1.42;;
10410;SDS011;5251;52.112;8.606;2023-08-06T12:20:10;1.40;;;1.30;;
10410;SDS011;5251;52.112;8.606;2023-08-06T12:22:36;1.67;;;1.55;;
10410;SDS011;5251;52.112;8.606;2023-08-06T12:25:05;2.00;;;1.80;;
10410;SDS011;5251;52.112;8.606;2023-08-06T12:27:40;1.60;;;1.50;;
10410;SDS011;5251;52.112;8.606;2023-08-06T12:30:07;2.05;;;1.30;;
10410;SDS011;5251;52.112;8.606;2023-08-06T12:32:33;1.50;;;1.40;;
10410;SDS011;5251;52.112;8.606;2023-08-06T12:34:59;5.70;;;1.48;;
10410;SDS011;5251;52.112;8.606;2023-08-06T12:37:26;2.00;;;1.90;;
10410;SDS011;5251;52.112;8.606;2023-08-06T12:39:52;1.55;;;1.45;;
10410;SDS011;5251;52.112;8.606;2023-08-06T12:42:17;2.50;;;1.55;;
10410;SDS011;5251;52.112;8.606;2023-08-06T12:44:43;2.00;;;1.70;;
10410;SDS011;5251;52.112;8.606;2023-08-06T12:47:08;2.08;;;1.55;;
10410;SDS011;5251;52.112;8.606;2023-08-06T12:49:35;1.73;;;1.25;;
10410;SDS011;5251;52.112;8.606;2023-08-06T12:52:01;1.95;;;1.33;;
10410;SDS011;5251;52.112;8.606;2023-08-06T12:54:27;1.40;;;1.30;;
10410;SDS011;5251;52.112;8.606;2023-08-06T12:56:53;1.60;;;1.50;;
10410;SDS011;5251;52.112;8.606;2023-08-06T12:59:19;2.22;;;1.38;;
10410;SDS011;5251;52.112;8.606;2023-08-06T13:01:45;1.60;;;1.50;;
10410;SDS011;5251;52.112;8.606;2023-08-06T13:04:11;1.50;;;1.40;;
10410;SDS011;5251;52.112;8.606;2023-08-06T13:06:37;1.55;;;1.45;;
10410;SDS011;5251;52.112;8.606;2023-08-06T13:09:04;1.50;;;1.40;;
10410;SDS011;5251;52.112;8.606;2023-08-06T13:11:33;1.75;;;1.50;;
10410;SDS011;5251;52.112;8.606;2023-08-06T13:14:10;1.48;;;1.38;;
10410;SDS011;5251;52.112;8.606;2023-08-06T13:16:37;1.67;;;1.58;;
10410;SDS011;5251;52.112;8.606;2023-08-06T13:19:05;2.10;;;1.83;;
10410;SDS011;5251;52.112;8.606;2023-08-06T13:21:32;1.95;;;1.60;;
10410;SDS011;5251;52.112;8.606;2023-08-06T13:24:20;1.73;;;1.40;;
10410;SDS011;5251;52.112;8.606;2023-08-06T13:26:46;2.05;;;1.45;;
10410;SDS011;5251;52.112;8.606;2023-08-06T13:29:11;1.80;;;1.70;;
10410;SDS011;5251;52.112;8.606;2023-08-06T13:31:37;1.70;;;1.60;;
10410;SDS011;5251;52.112;8.606;2023-08-06T13:34:03;2.13;;;1.45;;
10410;SDS011;5251;52.112;8.606;2023-08-06T13:36:29;1.50;;;1.40;;
10410;SDS011;5251;52.112;8.606;2023-08-06T13:38:56;1.60;;;1.50;;
10410;SDS011;5251;52.112;8.606;2023-08-06T13:41:21;1.65;;;1.38;;
10410;SDS011;5251;52.112;8.606;2023-08-06T13:43:47;1.63;;;1.52;;
10410;SDS011;5251;52.112;8.606;2023-08-06T13:46:13;1.85;;;1.60;;
10410;SDS011;5251;52.112;8.606;2023-08-06T13:48:43;1.92;;;1.65;;
10410;SDS011;5251;52.112;8.606;2023-08-06T13:51:09;1.85;;;1.50;;
10410;SDS011;5251;52.112;8.606;2023-08-06T13:53:36;2.25;;;1.83;;
10410;SDS011;5251;52.112;8.606;2023-08-06T13:56:02;2.90;;;1.90;;
10410;SDS011;5251;52.112;8.606;2023-08-06T13:58:28;2.65;;;2.08;;
10410;SDS011;5251;52.112;8.606;2023-08-06T14:00:53;2.33;;;2.10;;
10410;SDS011;5251;52.112;8.606;2023-08-06T14:03:19;2.47;;;2.20;;
10410;SDS011;5251;52.112;8.606;2023-08-06T14:05:45;2.85;;;2.20;;
10410;SDS011;5251;52.112;8.606;2023-08-06T14:08:11;2.08;;;1.88;;
10410;SDS011;5251;52.112;8.606;2023-08-06T14:10:36;1.90;;;1.80;;
10410;SDS011;5251;52.112;8.606;2023-08-06T14:13:02;2.10;;;1.90;;
10410;SDS011;5251;52.112;8.606;2023-08-06T14:15:28;2.28;;;2.08;;
10410;SDS011;5251;52.112;8.606;2023-08-06T14:17:53;2.25;;;2.05;;
10410;SDS011;5251;52.112;8.606;2023-08-06T14:20:19;2.10;;;1.90;;
10410;SDS011;5251;52.112;8.606;2023-08-06T14:22:44;3.13;;;2.17;;
10410;SDS011;5251;52.112;8.606;2023-08-06T14:25:10;2.45;;;2.25;;
10410;SDS011;5251;52.112;8.606;2023-08-06T14:27:35;2.80;;;2.20;;
10410;SDS011;5251;52.112;8.606;2023-08-06T14:30:03;2.40;;;2.20;;
10410;SDS011;5251;52.112;8.606;2023-08-06T14:32:32;2.58;;;2.25;;
10410;SDS011;5251;52.112;8.606;2023-08-06T14:34:58;1.90;;;1.80;;
10410;SDS011;5251;52.112;8.606;2023-08-06T14:37:24;3.35;;;2.05;;
10410;SDS011;5251;52.112;8.606;2023-08-06T14:39:50;2.50;;;2.10;;
10410;SDS011;5251;52.112;8.606;2023-08-06T14:42:16;1.88;;;1.70;;
10410;SDS011;5251;52.112;8.606;2023-08-06T14:44:42;2.00;;;1.90;;
10410;SDS011;5251;52.112;8.606;2023-08-06T14:47:07;1.95;;;1.80;;
10410;SDS011;5251;52.112;8.606;2023-08-06T14:49:33;1.98;;;1.88;;
10410;SDS011;5251;52.112;8.606;2023-08-06T14:51:58;2.13;;;1.92;;
10410;SDS011;5251;52.112;8.606;2023-08-06T14:54:25;2.15;;;1.83;;
10410;SDS011;5251;52.112;8.606;2023-08-06T14:56:51;1.73;;;1.63;;
10410;SDS011;5251;52.112;8.606;2023-08-06T14:59:17;1.98;;;1.77;;
10410;SDS011;5251;52.112;8.606;2023-08-06T15:01:42;1.77;;;1.67;;
10410;SDS011;5251;52.112;8.606;2023-08-06T15:04:08;2.08;;;1.70;;
10410;SDS011;5251;52.112;8.606;2023-08-06T15:06:34;2.08;;;1.52;;
10410;SDS011;5251;52.112;8.606;2023-08-06T15:08:59;2.08;;;1.70;;
10410;SDS011;5251;52.112;8.606;2023-08-06T15:11:26;2.35;;;1.70;;
10410;SDS011;5251;52.112;8.606;2023-08-06T15:13:52;10.35;;;2.85;;